Time;durP1;ratioP1;P1;durP2;ratioP2;P2;SDS_P1;SDS_P2;PMS_P1;PMS_P2;Temp;Humidity;BMP_temperature;BMP_pressure;BME280_temperature;BME280_humidity;BME280_pressure;Samples;Min_cycle;Max_cycle;Signal;HPM_P1;HPM_P2
2022/07/08 00:00:20;;;;;;;;;;;;;;;;;;5075880;28;19908;-41
2022/07/08 00:02:45;;;;;;;;;;;;;;;;;;5075324;28;19912;-41
2022/07/08 00:05:10;;;;;;;;;;;;;;;;;;5074840;28;20080;-42
2022/07/08 00:07:35;;;;;;;;;;;;;;;;;;5075497;28;20057;-41
2022/07/08 00:10:00;;;;;;;;;;;;;;;;;;5075035;28;19920;-42
2022/07/08 00:12:25;;;;;;;;;;;;;;;;;;5074387;28;20341;-41
2022/07/08 00:14:51;;;;;;;;;;;;;;;;;;5075266;28;19978;-41
2022/07/08 00:17:16;;;;;;;;;;;;;;;;;;5075436;28;20006;-41
2022/07/08 00:19:41;;;;;;;;;;;;;;;;;;5074478;28;19920;-41
2022/07/08 00:22:06;;;;;;;;;;;;;;;;;;5075057;28;19962;-41
2022/07/08 00:24:31;;;;;;;;;;;;;;;;;;5074719;28;19974;-41
2022/07/08 00:26:56;;;;;;;;;;;;;;;;;;5075014;28;19982;-41
2022/07/08 00:29:21;;;;;;;;;;;;;;;;;;5075438;28;19919;-41
2022/07/08 00:31:46;;;;;;;;;;;;;;;;;;5074892;28;20329;-41
2022/07/08 00:34:12;;;;;;;;;;;;;;;;;;5075114;28;19908;-41
2022/07/08 00:36:37;;;;;;;;;;;;;;;;;;5075340;28;20052;-41
2022/07/08 00:39:02;;;;;;;;;;;;;;;;;;5075249;28;19919;-41
2022/07/08 00:41:27;;;;;;;;;;;;;;;;;;5074918;28;19919;-41
2022/07/08 00:43:53;;;;;;;;;;;;;;;;;;5075292;28;19908;-42
2022/07/08 00:46:19;;;;;;;;;;;;;;;;;;5075123;28;19963;-41
2022/07/08 00:48:44;;;;;;;;;;;;;;;;;;5074893;28;19917;-41
2022/07/08 00:51:09;;;;;;;;;;;;;;;;;;5075102;28;19916;-41
2022/07/08 00:53:34;;;;;;;;;;;;;;;;;;5074953;28;19908;-41
2022/07/08 00:55:59;;;;;;;;;;;;;;;;;;5074819;28;19947;-41
2022/07/08 00:58:24;;;;;;;;;;;;;;;;;;5074664;28;19912;-41
2022/07/08 01:00:50;;;;;;;;;;;;;;;;;;5074892;28;19909;-42
2022/07/08 01:03:15;;;;;;;;;;;;;;;;;;5074845;28;20295;-42
2022/07/08 01:05:40;;;;;;;;;;;;;;;;;;5074866;28;20005;-41
2022/07/08 01:08:05;;;;;;;;;;;;;;;;;;5074838;28;19962;-41
2022/07/08 01:10:30;;;;;;;;;;;;;;;;;;5074972;28;19995;-41
2022/07/08 01:12:55;;;;;;;;;;;;;;;;;;5074912;28;19962;-41
2022/07/08 01:15:21;;;;;;;;;;;;;;;;;;5074884;28;19954;-42
2022/07/08 01:17:46;;;;;;;;;;;;;;;;;;5074678;28;19915;-40
2022/07/08 01:20:11;;;;;;;;;;;;;;;;;;5074159;28;20356;-41
2022/07/08 01:22:36;;;;;;;;;;;;;;;;;;5075180;28;19974;-41
2022/07/08 01:25:01;;;;;;;;;;;;;;;;;;5075625;28;20386;-41
2022/07/08 01:27:26;;;;;;;;;;;;;;;;;;5078055;28;19912;-41
2022/07/08 01:29:52;;;;;;;;;;;;;;;;;;5078252;28;19909;-41
2022/07/08 01:32:17;;;;;;;;;;;;;;;;;;5077206;28;19920;-41
2022/07/08 01:34:42;;;;;;;;;;;;;;;;;;5078608;28;19909;-41
2022/07/08 01:37:07;;;;;;;;;;;;;;;;;;5078251;28;19915;-41
2022/07/08 01:39:32;;;;;;;;;;;;;;;;;;5077577;28;19919;-41
2022/07/08 01:41:57;;;;;;;;;;;;;;;;;;5077564;28;19952;-41
2022/07/08 01:44:22;;;;;;;;;;;;;;;;;;5077667;28;19948;-41
2022/07/08 01:46:47;;;;;;;;;;;;;;;;;;5077823;28;20010;-41
2022/07/08 01:49:14;;;;;;;;;;;;;;;;;;5077837;28;19908;-41
2022/07/08 01:51:39;;;;;;;;;;;;;;;;;;5077976;28;19908;-41
2022/07/08 01:54:04;;;;;;;;;;;;;;;;;;5077538;28;19921;-41
2022/07/08 01:56:29;;;;;;;;;;;;;;;;;;5077556;28;19920;-41
2022/07/08 01:58:54;;;;;;;;;;;;;;;;;;5077796;28;20359;-41
2022/07/08 02:01:19;;;;;;;;;;;;;;;;;;5077546;28;20030;-41
2022/07/08 02:03:45;;;;;;;;;;;;;;;;;;5077888;28;20090;-40
2022/07/08 02:06:11;;;;;;;;;;;;;;;;;;5077641;28;20466;-41
2022/07/08 02:08:36;;;;;;;;;;;;;;;;;;5076908;28;19912;-40
2022/07/08 02:13:44;;;;;;;;;;;;;;;;;;5077499;28;20282;-40
2022/07/08 02:16:10;;;;;;;;;;;;;;;;;;5077289;28;19912;-41
2022/07/08 02:18:35;;;;;;;;;;;;;;;;;;5077433;28;19909;-41
2022/07/08 02:21:00;;;;;;;;;;;;;;;;;;5077164;28;19912;-41
2022/07/08 02:23:25;;;;;;;;;;;;;;;;;;5076942;28;19920;-41
2022/07/08 02:25:50;;;;;;;;;;;;;;;;;;5077502;28;20274;-40
2022/07/08 02:28:15;;;;;;;;;;;;;;;;;;5076951;28;19995;-41
2022/07/08 02:30:40;;;;;;;;;;;;;;;;;;5077268;28;19909;-42
2022/07/08 02:33:05;;;;;;;;;;;;;;;;;;5076813;28;20377;-41
2022/07/08 02:35:30;;;;;;;;;;;;;;;;;;5076827;28;20352;-40
2022/07/08 02:37:55;;;;;;;;;;;;;;;;;;5076702;28;20271;-41
2022/07/08 02:40:21;;;;;;;;;;;;;;;;;;5076863;28;19909;-41
2022/07/08 02:42:46;;;;;;;;;;;;;;;;;;5076948;28;19908;-41
2022/07/08 02:45:11;;;;;;;;;;;;;;;;;;5076530;28;20346;-40
2022/07/08 02:47:37;;;;;;;;;;;;;;;;;;5076812;28;19912;-40
2022/07/08 02:50:02;;;;;;;;;;;;;;;;;;5076868;28;20406;-41
2022/07/08 02:52:27;;;;;;;;;;;;;;;;;;5077092;28;19988;-41
2022/07/08 02:54:52;;;;;;;;;;;;;;;;;;5076729;28;19913;-41
2022/07/08 02:57:17;;;;;;;;;;;;;;;;;;5076700;28;20405;-42
2022/07/08 02:59:44;;;;;;;;;;;;;;;;;;5076617;28;19908;-40
2022/07/08 03:02:09;;;;;;;;;;;;;;;;;;5076383;28;20041;-41
2022/07/08 03:04:34;;;;;;;;;;;;;;;;;;5076295;28;19962;-40
2022/07/08 03:06:59;;;;;;;;;;;;;;;;;;5076370;28;20426;-40
2022/07/08 03:09:24;;;;;;;;;;;;;;;;;;5076043;28;20025;-40
2022/07/08 03:11:49;;;;;;;;;;;;;;;;;;5076257;28;19959;-41
2022/07/08 03:14:14;;;;;;;;;;;;;;;;;;5076210;28;20011;-42
2022/07/08 03:16:39;;;;;;;;;;;;;;;;;;5076345;28;19994;-41
2022/07/08 03:19:05;;;;;;;;;;;;;;;;;;5075707;28;20088;-41
2022/07/08 03:21:30;;;;;;;;;;;;;;;;;;5076240;28;19958;-40
2022/07/08 03:23:55;;;;;;;;;;;;;;;;;;5076094;28;19913;-41
2022/07/08 03:26:20;;;;;;;;;;;;;;;;;;5076072;28;19912;-41
2022/07/08 03:28:45;;;;;;;;;;;;;;;;;;5075810;28;20344;-41
2022/07/08 03:31:10;;;;;;;;;;;;;;;;;;5075581;28;20260;-41
2022/07/08 03:33:35;;;;;;;;;;;;;;;;;;5076095;28;19977;-41
2022/07/08 03:36:00;;;;;;;;;;;;;;;;;;5075884;28;19909;-41
2022/07/08 03:38:25;;;;;;;;;;;;;;;;;;5075476;28;19908;-41
2022/07/08 03:41:24;;;;;;;;;;;;;;;;;;5075738;28;19909;-41
2022/07/08 03:43:42;;;;;;;;;;;;;;;;;;5072073;28;19912;-41
2022/07/08 03:46:07;;;;;;;;;;;;;;;;;;5075527;28;19912;-41
2022/07/08 03:48:32;;;;;;;;;;;;;;;;;;5074655;28;20284;-41
2022/07/08 03:50:57;;;;;;;;;;;;;;;;;;5075649;28;19960;-40
2022/07/08 03:53:22;;;;;;;;;;;;;;;;;;5075723;28;20337;-40
2022/07/08 03:55:47;;;;;;;;;;;;;;;;;;5074820;28;19936;-41
2022/07/08 03:58:13;;;;;;;;;;;;;;;;;;5075298;28;20021;-40
2022/07/08 04:00:38;;;;;;;;;;;;;;;;;;5075279;28;19912;-40
2022/07/08 04:03:03;;;;;;;;;;;;;;;;;;5075024;28;19909;-40
2022/07/08 04:05:28;;;;;;;;;;;;;;;;;;5074769;28;19921;-40
2022/07/08 04:07:53;;;;;;;;;;;;;;;;;;5075222;28;19955;-41
2022/07/08 04:10:18;;;;;;;;;;;;;;;;;;5074585;28;19951;-41
2022/07/08 04:12:46;;;;;;;;;;;;;;;;;;5074884;28;19970;-41
2022/07/08 04:15:12;;;;;;;;;;;;;;;;;;5075016;28;19909;-41
2022/07/08 04:17:38;;;;;;;;;;;;;;;;;;5074942;28;19956;-40
2022/07/08 04:20:03;;;;;;;;;;;;;;;;;;5073931;28;19985;-40
2022/07/08 04:22:28;;;;;;;;;;;;;;;;;;5074373;28;19912;-40
2022/07/08 04:24:53;;;;;;;;;;;;;;;;;;5074813;28;19917;-41
2022/07/08 04:27:18;;;;;;;;;;;;;;;;;;5075293;28;20372;-41
2022/07/08 04:29:43;;;;;;;;;;;;;;;;;;5075180;28;19916;-41
2022/07/08 04:32:08;;;;;;;;;;;;;;;;;;5075159;28;19970;-40
2022/07/08 04:34:33;;;;;;;;;;;;;;;;;;5074617;28;19919;-41
2022/07/08 04:36:59;;;;;;;;;;;;;;;;;;5075011;28;19908;-41
2022/07/08 04:39:25;;;;;;;;;;;;;;;;;;5074737;28;19908;-41
2022/07/08 04:41:50;;;;;;;;;;;;;;;;;;5074678;28;19913;-40
2022/07/08 04:44:15;;;;;;;;;;;;;;;;;;5074955;28;20340;-41
2022/07/08 04:46:40;;;;;;;;;;;;;;;;;;5074054;28;19924;-41
2022/07/08 04:49:05;;;;;;;;;;;;;;;;;;5074501;28;19915;-41
2022/07/08 04:51:30;;;;;;;;;;;;;;;;;;5074729;28;19908;-41
2022/07/08 04:53:56;;;;;;;;;;;;;;;;;;5074513;28;20011;-41
2022/07/08 04:56:21;;;;;;;;;;;;;;;;;;5074309;28;20470;-41
2022/07/08 04:58:46;;;;;;;;;;;;;;;;;;5074677;28;19951;-41
2022/07/08 05:01:12;;;;;;;;;;;;;;;;;;5078297;28;20007;-41
2022/07/08 05:03:37;;;;;;;;;;;;;;;;;;5077542;28;20303;-41
2022/07/08 05:06:02;;;;;;;;;;;;;;;;;;5078311;28;19920;-41
2022/07/08 05:08:27;;;;;;;;;;;;;;;;;;5078029;28;19909;-41
2022/07/08 05:10:53;;;;;;;;;;;;;;;;;;5078188;28;20261;-41
2022/07/08 05:13:18;;;;;;;;;;;;;;;;;;5078322;28;20306;-41
2022/07/08 05:15:43;;;;;;;;;;;;;;;;;;5078329;28;20317;-41
2022/07/08 05:18:08;;;;;;;;;;;;;;;;;;5077933;28;19961;-41
2022/07/08 05:20:33;;;;;;;;;;;;;;;;;;5077886;28;19919;-41
2022/07/08 05:22:58;;;;;;;;;;;;;;;;;;5081743;28;20279;-44
2022/07/08 05:25:24;;;;;;;;;;;;;;;;;;5082164;28;20348;-45
2022/07/08 05:27:49;;;;;;;;;;;;;;;;;;5068143;28;19940;-45
2022/07/08 05:30:14;;;;;;;;;;;;;;;;;;5073707;28;19913;-44
2022/07/08 05:32:40;;;;;;;;;;;;;;;;;;5066937;28;19913;-43
2022/07/08 05:35:06;;;;;;;;;;;;;;;;;;5070581;28;20444;-45
2022/07/08 05:37:31;;;;;;;;;;;;;;;;;;5071655;28;19908;-44
2022/07/08 05:39:56;;;;;;;;;;;;;;;;;;5075158;28;19962;-43
2022/07/08 05:42:21;;;;;;;;;;;;;;;;;;5069459;28;19913;-44
2022/07/08 05:44:46;;;;;;;;;;;;;;;;;;5083877;28;20363;-46
2022/07/08 05:47:13;;;;;;;;;;;;;;;;;;5070754;28;19924;-44
2022/07/08 05:49:39;;;;;;;;;;;;;;;;;;5074744;28;20010;-43
2022/07/08 05:52:04;;;;;;;;;;;;;;;;;;5068934;28;20264;-44
2022/07/08 05:54:29;;;;;;;;;;;;;;;;;;5062576;28;19921;-45
2022/07/08 05:56:54;;;;;;;;;;;;;;;;;;5061935;28;19985;-45
2022/07/08 05:59:19;;;;;;;;;;;;;;;;;;5068402;28;19927;-45
2022/07/08 06:01:44;;;;;;;;;;;;;;;;;;5044423;28;19917;-42
2022/07/08 06:04:09;;;;;;;;;;;;;;;;;;5043798;28;21265;-44
2022/07/08 06:06:34;;;;;;;;;;;;;;;;;;5039042;28;19967;-47
2022/07/08 06:09:00;;;;;;;;;;;;;;;;;;5022722;28;19971;-43
2022/07/08 06:11:25;;;;;;;;;;;;;;;;;;4996145;28;20091;-45
2022/07/08 06:13:50;;;;;;;;;;;;;;;;;;4941415;28;20002;-46
2022/07/08 06:16:15;;;;;;;;;;;;;;;;;;4853101;28;20129;-43
2022/07/08 06:18:40;;;;;;;;;;;;;;;;;;4780818;28;23172;-45
2022/07/08 06:21:05;;;;;;;;;;;;;;;;;;4699266;28;21666;-44
2022/07/08 06:23:31;;;;;;;;;;;;;;;;;;4661029;28;23938;-47
2022/07/08 06:25:56;;;;;;;;;;;;;;;;;;4680612;28;19924;-45
2022/07/08 06:28:21;;;;;;;;;;;;;;;;;;4798169;28;19928;-45
2022/07/08 06:30:47;;;;;;;;;;;;;;;;;;4856525;28;23391;-47
2022/07/08 06:33:12;;;;;;;;;;;;;;;;;;4875516;28;20920;-46
2022/07/08 06:35:37;;;;;;;;;;;;;;;;;;4890833;28;20064;-46
2022/07/08 06:38:02;;;;;;;;;;;;;;;;;;4912413;28;19925;-44
2022/07/08 06:40:27;;;;;;;;;;;;;;;;;;4908895;28;19921;-45
2022/07/08 06:42:52;;;;;;;;;;;;;;;;;;4911264;28;20062;-44
2022/07/08 06:45:17;;;;;;;;;;;;;;;;;;4910736;28;19928;-46
2022/07/08 06:47:43;;;;;;;;;;;;;;;;;;4920166;28;19939;-45
2022/07/08 06:50:08;;;;;;;;;;;;;;;;;;4919051;28;19952;-46
2022/07/08 06:52:33;;;;;;;;;;;;;;;;;;4913416;28;19921;-46
2022/07/08 06:54:59;;;;;;;;;;;;;;;;;;4900880;28;21320;-46
2022/07/08 06:57:24;;;;;;;;;;;;;;;;;;4895967;28;19920;-46
2022/07/08 06:59:52;;;;;;;;;;;;;;;;;;4927317;28;19928;-46
2022/07/08 07:02:17;;;;;;;;;;;;;;;;;;4898429;28;19920;-47
2022/07/08 07:04:43;;;;;;;;;;;;;;;;;;4911268;28;19931;-46
2022/07/08 07:07:08;;;;;;;;;;;;;;;;;;4898062;28;20895;-49
2022/07/08 07:09:33;;;;;;;;;;;;;;;;;;4905553;28;19962;-47
2022/07/08 07:11:58;;;;;;;;;;;;;;;;;;4906955;28;19928;-48
2022/07/08 07:14:23;;;;;;;;;;;;;;;;;;4884560;28;20049;-47
2022/07/08 07:16:48;;;;;;;;;;;;;;;;;;4902681;28;20033;-47
2022/07/08 07:19:13;;;;;;;;;;;;;;;;;;4900006;28;19921;-47
2022/07/08 07:21:38;;;;;;;;;;;;;;;;;;4830756;28;19927;-48
2022/07/08 07:24:04;;;;;;;;;;;;;;;;;;4752579;28;22692;-43
2022/07/08 07:26:29;;;;;;;;;;;;;;;;;;4757098;28;19924;-45
2022/07/08 07:28:54;;;;;;;;;;;;;;;;;;4779829;28;20115;-45
2022/07/08 07:31:19;;;;;;;;;;;;;;;;;;4806934;28;19943;-47
2022/07/08 07:33:44;;;;;;;;;;;;;;;;;;4836554;28;19959;-42
2022/07/08 07:36:10;;;;;;;;;;;;;;;;;;4835485;28;19924;-42
2022/07/08 07:38:35;;;;;;;;;;;;;;;;;;4810179;28;20128;-42
2022/07/08 07:41:00;;;;;;;;;;;;;;;;;;4799879;28;24498;-41
2022/07/08 07:43:25;;;;;;;;;;;;;;;;;;4760772;28;21154;-43
2022/07/08 07:45:50;;;;;;;;;;;;;;;;;;4752107;28;20020;-43
2022/07/08 07:48:16;;;;;;;;;;;;;;;;;;4804340;28;20050;-40
2022/07/08 07:50:41;;;;;;;;;;;;;;;;;;4869001;28;20110;-40
2022/07/08 07:53:06;;;;;;;;;;;;;;;;;;4906430;28;20006;-42
2022/07/08 07:55:31;;;;;;;;;;;;;;;;;;4909125;28;19920;-42
2022/07/08 07:57:56;;;;;;;;;;;;;;;;;;4908446;28;19927;-40
2022/07/08 08:00:21;;;;;;;;;;;;;;;;;;4893566;28;19927;-41
2022/07/08 08:02:47;;;;;;;;;;;;;;;;;;4909233;28;19928;-41
2022/07/08 08:05:12;;;;;;;;;;;;;;;;;;4919422;28;19994;-40
2022/07/08 08:07:37;;;;;;;;;;;;;;;;;;4919526;28;20011;-42
2022/07/08 08:10:03;;;;;;;;;;;;;;;;;;4925349;28;19921;-40
2022/07/08 08:12:28;;;;;;;;;;;;;;;;;;4917881;28;19929;-40
2022/07/08 08:14:53;;;;;;;;;;;;;;;;;;4894064;28;19920;-41
2022/07/08 08:17:18;;;;;;;;;;;;;;;;;;4941630;22;20312;-41
2022/07/08 08:19:43;;;;;;;;;;;;;;;;;;4924364;28;19927;-41
2022/07/08 08:22:08;;;;;;;;;;;;;;;;;;4918037;28;19966;-41
2022/07/08 08:24:33;;;;;;;;;;;;;;;;;;4951643;28;19926;-42
2022/07/08 08:26:58;;;;;;;;;;;;;;;;;;4946235;28;19923;-41
2022/07/08 08:29:23;;;;;;;;;;;;;;;;;;4956868;28;19919;-41
2022/07/08 08:31:48;;;;;;;;;;;;;;;;;;4942694;28;21446;-41
2022/07/08 08:34:14;;;;;;;;;;;;;;;;;;4948275;28;21186;-41
2022/07/08 08:36:39;;;;;;;;;;;;;;;;;;4928620;28;20057;-42
2022/07/08 08:39:04;;;;;;;;;;;;;;;;;;4931782;28;19919;-42
2022/07/08 08:41:29;;;;;;;;;;;;;;;;;;4818421;28;21476;-42
2022/07/08 08:43:54;;;;;;;;;;;;;;;;;;4711050;28;20847;-42
2022/07/08 08:46:19;;;;;;;;;;;;;;;;;;4751181;28;20072;-43
2022/07/08 08:48:44;;;;;;;;;;;;;;;;;;4818587;28;19982;-41
2022/07/08 08:51:09;;;;;;;;;;;;;;;;;;4876757;28;21877;-41
2022/07/08 08:53:37;;;;;;;;;;;;;;;;;;4881960;28;19928;-42
2022/07/08 08:56:03;;;;;;;;;;;;;;;;;;4887404;28;21327;-42
2022/07/08 08:58:28;;;;;;;;;;;;;;;;;;4897681;28;22762;-42
2022/07/08 09:00:53;;;;;;;;;;;;;;;;;;4897667;28;19930;-42
2022/07/08 09:03:18;;;;;;;;;;;;;;;;;;4875078;28;20119;-42
2022/07/08 09:05:43;;;;;;;;;;;;;;;;;;4862750;28;20020;-42
2022/07/08 09:08:09;;;;;;;;;;;;;;;;;;4922410;28;19966;-42
2022/07/08 09:10:34;;;;;;;;;;;;;;;;;;4953088;28;20810;-43
2022/07/08 09:12:59;;;;;;;;;;;;;;;;;;4988370;28;20751;-42
2022/07/08 09:15:24;;;;;;;;;;;;;;;;;;4951662;28;21581;-42
2022/07/08 09:17:49;;;;;;;;;;;;;;;;;;4970924;28;20121;-42
2022/07/08 09:20:14;;;;;;;;;;;;;;;;;;4981882;28;21495;-40
2022/07/08 09:22:39;;;;;;;;;;;;;;;;;;4991391;28;20755;-41
2022/07/08 09:25:04;;;;;;;;;;;;;;;;;;4972044;28;20896;-41
2022/07/08 09:27:29;;;;;;;;;;;;;;;;;;4981678;28;20057;-42
2022/07/08 09:29:55;;;;;;;;;;;;;;;;;;4976550;28;19936;-41
2022/07/08 09:32:20;;;;;;;;;;;;;;;;;;4978879;28;22929;-43
2022/07/08 09:34:45;;;;;;;;;;;;;;;;;;5003427;28;20054;-41
2022/07/08 09:37:11;;;;;;;;;;;;;;;;;;5014593;28;21626;-41
2022/07/08 09:39:36;;;;;;;;;;;;;;;;;;4992008;28;20306;-41
2022/07/08 09:42:01;;;;;;;;;;;;;;;;;;4964035;28;19920;-41
2022/07/08 09:44:26;;;;;;;;;;;;;;;;;;4947327;28;19966;-41
2022/07/08 09:46:51;;;;;;;;;;;;;;;;;;4970062;28;19928;-41
2022/07/08 09:49:16;;;;;;;;;;;;;;;;;;4989917;28;19924;-41
2022/07/08 09:51:41;;;;;;;;;;;;;;;;;;4964286;28;20146;-42
2022/07/08 09:54:06;;;;;;;;;;;;;;;;;;4980614;28;19920;-42
2022/07/08 09:56:32;;;;;;;;;;;;;;;;;;4997833;28;19920;-42
2022/07/08 09:58:57;;;;;;;;;;;;;;;;;;4970867;28;20668;-41
2022/07/08 10:01:22;;;;;;;;;;;;;;;;;;4947206;28;19961;-41
2022/07/08 10:03:47;;;;;;;;;;;;;;;;;;4900130;28;24923;-42
2022/07/08 10:06:12;;;;;;;;;;;;;;;;;;4849042;28;20584;-42
2022/07/08 10:08:37;;;;;;;;;;;;;;;;;;4861714;28;20389;-43
2022/07/08 10:11:03;;;;;;;;;;;;;;;;;;4909325;28;20782;-43
2022/07/08 10:13:28;;;;;;;;;;;;;;;;;;4913365;28;19920;-43
2022/07/08 10:15:53;;;;;;;;;;;;;;;;;;4930094;28;19990;-43
2022/07/08 10:18:19;;;;;;;;;;;;;;;;;;4953294;28;20553;-43
2022/07/08 10:20:44;;;;;;;;;;;;;;;;;;5005347;28;19919;-42
2022/07/08 10:23:09;;;;;;;;;;;;;;;;;;5025350;28;19924;-42
2022/07/08 10:25:34;;;;;;;;;;;;;;;;;;5040407;28;20320;-43
2022/07/08 10:27:59;;;;;;;;;;;;;;;;;;5038855;28;19970;-42
2022/07/08 10:30:24;;;;;;;;;;;;;;;;;;5022314;28;20649;-42
2022/07/08 10:32:49;;;;;;;;;;;;;;;;;;5027469;28;19920;-42
2022/07/08 10:35:15;;;;;;;;;;;;;;;;;;5040251;28;19994;-43
2022/07/08 10:37:40;;;;;;;;;;;;;;;;;;5035014;28;20033;-42
2022/07/08 10:40:05;;;;;;;;;;;;;;;;;;5053175;28;19980;-42
2022/07/08 10:42:30;;;;;;;;;;;;;;;;;;5049919;28;19920;-42
2022/07/08 10:44:55;;;;;;;;;;;;;;;;;;5059060;28;20287;-43
2022/07/08 10:47:20;;;;;;;;;;;;;;;;;;5049653;28;19912;-39
2022/07/08 10:49:45;;;;;;;;;;;;;;;;;;5057376;28;19921;-42
2022/07/08 10:52:10;;;;;;;;;;;;;;;;;;5062275;28;19923;-43
2022/07/08 10:54:39;;;;;;;;;;;;;;;;;;5053089;28;19959;-42
2022/07/08 10:57:05;;;;;;;;;;;;;;;;;;5057810;28;20066;-43
2022/07/08 10:59:30;;;;;;;;;;;;;;;;;;5078600;28;19952;-43
2022/07/08 11:01:55;;;;;;;;;;;;;;;;;;5077710;28;19993;-42
2022/07/08 11:04:21;;;;;;;;;;;;;;;;;;5063119;28;19916;-43
2022/07/08 11:06:46;;;;;;;;;;;;;;;;;;5068216;28;20073;-42
2022/07/08 11:09:11;;;;;;;;;;;;;;;;;;5077285;28;20743;-43
2022/07/08 11:11:36;;;;;;;;;;;;;;;;;;5066738;28;20018;-43
2022/07/08 11:14:01;;;;;;;;;;;;;;;;;;5073288;28;19939;-42
2022/07/08 11:16:26;;;;;;;;;;;;;;;;;;5069245;28;21122;-43
2022/07/08 11:18:51;;;;;;;;;;;;;;;;;;5065835;28;19921;-42
2022/07/08 11:21:16;;;;;;;;;;;;;;;;;;5070400;28;19920;-42
2022/07/08 11:23:41;;;;;;;;;;;;;;;;;;5074899;28;19920;-42
2022/07/08 11:26:07;;;;;;;;;;;;;;;;;;5071196;28;19927;-43
2022/07/08 11:28:32;;;;;;;;;;;;;;;;;;5066855;28;19963;-43
2022/07/08 11:30:57;;;;;;;;;;;;;;;;;;5068147;28;19973;-43
2022/07/08 11:33:23;;;;;;;;;;;;;;;;;;5069464;28;19974;-45
2022/07/08 11:35:48;;;;;;;;;;;;;;;;;;5072422;28;19951;-43
2022/07/08 11:38:13;;;;;;;;;;;;;;;;;;5071932;28;19927;-43
2022/07/08 11:40:38;;;;;;;;;;;;;;;;;;5079692;28;19926;-43
2022/07/08 11:43:03;;;;;;;;;;;;;;;;;;5080503;28;19927;-43
2022/07/08 11:45:28;;;;;;;;;;;;;;;;;;5071891;28;19924;-43
2022/07/08 11:47:53;;;;;;;;;;;;;;;;;;5077613;28;20255;-42
2022/07/08 11:50:18;;;;;;;;;;;;;;;;;;5085889;28;19916;-43
2022/07/08 11:52:43;;;;;;;;;;;;;;;;;;5081050;28;20379;-43
2022/07/08 11:55:09;;;;;;;;;;;;;;;;;;5061465;28;20370;-42
2022/07/08 11:57:34;;;;;;;;;;;;;;;;;;5061435;28;19959;-44
2022/07/08 11:59:59;;;;;;;;;;;;;;;;;;5063020;28;19920;-43
2022/07/08 12:02:24;;;;;;;;;;;;;;;;;;5060448;28;19940;-42
2022/07/08 12:04:50;;;;;;;;;;;;;;;;;;5086529;28;19920;-42
2022/07/08 12:07:15;;;;;;;;;;;;;;;;;;5085402;28;20308;-43
2022/07/08 12:09:40;;;;;;;;;;;;;;;;;;5069035;28;19927;-44
2022/07/08 12:12:06;;;;;;;;;;;;;;;;;;5084035;28;19912;-43
2022/07/08 12:14:31;;;;;;;;;;;;;;;;;;5084018;28;20416;-42
2022/07/08 12:16:57;;;;;;;;;;;;;;;;;;5074320;28;19933;-42
2022/07/08 12:19:22;;;;;;;;;;;;;;;;;;5081267;28;19938;-43
2022/07/08 12:21:47;;;;;;;;;;;;;;;;;;5091407;28;19920;-44
2022/07/08 12:24:14;;;;;;;;;;;;;;;;;;5084621;28;19923;-44
2022/07/08 12:26:39;;;;;;;;;;;;;;;;;;5082296;28;19916;-43
2022/07/08 12:29:04;;;;;;;;;;;;;;;;;;5086225;28;19912;-43
2022/07/08 12:31:29;;;;;;;;;;;;;;;;;;5084744;28;20366;-42
2022/07/08 12:33:54;;;;;;;;;;;;;;;;;;5082177;28;19916;-43
2022/07/08 12:36:19;;;;;;;;;;;;;;;;;;5081774;28;19916;-43
2022/07/08 12:38:44;;;;;;;;;;;;;;;;;;5084534;28;19919;-44
2022/07/08 12:41:09;;;;;;;;;;;;;;;;;;5086298;28;19912;-42
2022/07/08 12:43:34;;;;;;;;;;;;;;;;;;5089319;28;19919;-43
2022/07/08 12:45:59;;;;;;;;;;;;;;;;;;5082684;28;20248;-42
2022/07/08 12:48:25;;;;;;;;;;;;;;;;;;5087352;28;20282;-43
2022/07/08 12:50:50;;;;;;;;;;;;;;;;;;5084606;28;19912;-43
2022/07/08 12:53:15;;;;;;;;;;;;;;;;;;5089160;28;19912;-43
2022/07/08 12:55:40;;;;;;;;;;;;;;;;;;5082084;28;19920;-43
2022/07/08 12:58:05;;;;;;;;;;;;;;;;;;5088537;28;19913;-43
2022/07/08 13:00:30;;;;;;;;;;;;;;;;;;5085026;28;19927;-42
2022/07/08 13:02:55;;;;;;;;;;;;;;;;;;5092950;28;19916;-43
2022/07/08 13:05:21;;;;;;;;;;;;;;;;;;5091761;28;20093;-42
2022/07/08 13:07:46;;;;;;;;;;;;;;;;;;5087914;28;19913;-42
2022/07/08 13:10:11;;;;;;;;;;;;;;;;;;5094838;28;19912;-42
2022/07/08 13:12:36;;;;;;;;;;;;;;;;;;5096241;28;20003;-43
2022/07/08 13:15:01;;;;;;;;;;;;;;;;;;5101201;28;19927;-43
2022/07/08 13:17:26;;;;;;;;;;;;;;;;;;5090090;28;20042;-43
2022/07/08 13:19:51;;;;;;;;;;;;;;;;;;5091317;28;19913;-42
2022/07/08 13:22:16;;;;;;;;;;;;;;;;;;5091526;28;20426;-43
2022/07/08 13:24:41;;;;;;;;;;;;;;;;;;5098776;28;19998;-43
2022/07/08 13:27:07;;;;;;;;;;;;;;;;;;5096511;28;19912;-42
2022/07/08 13:29:32;;;;;;;;;;;;;;;;;;5097849;28;20255;-43
2022/07/08 13:31:57;;;;;;;;;;;;;;;;;;5089380;28;19939;-42
2022/07/08 13:34:22;;;;;;;;;;;;;;;;;;5087377;28;19927;-43
2022/07/08 13:36:47;;;;;;;;;;;;;;;;;;5091556;28;19919;-44
2022/07/08 13:39:12;;;;;;;;;;;;;;;;;;5086406;28;19912;-43
2022/07/08 13:41:37;;;;;;;;;;;;;;;;;;5095526;28;19912;-44
2022/07/08 13:44:02;;;;;;;;;;;;;;;;;;5096532;28;19935;-43
2022/07/08 13:46:27;;;;;;;;;;;;;;;;;;5095271;28;19916;-44
2022/07/08 13:48:53;;;;;;;;;;;;;;;;;;5091194;28;20284;-44
2022/07/08 13:51:18;;;;;;;;;;;;;;;;;;5092142;28;19912;-43
2022/07/08 13:53:43;;;;;;;;;;;;;;;;;;5092612;28;20401;-43
2022/07/08 13:56:08;;;;;;;;;;;;;;;;;;5087854;28;19912;-43
2022/07/08 13:58:34;;;;;;;;;;;;;;;;;;5088123;28;19920;-43
2022/07/08 14:00:59;;;;;;;;;;;;;;;;;;5086745;28;19916;-43
2022/07/08 14:03:24;;;;;;;;;;;;;;;;;;5091914;28;19912;-44
2022/07/08 14:05:49;;;;;;;;;;;;;;;;;;5087862;28;19923;-43
2022/07/08 14:08:14;;;;;;;;;;;;;;;;;;5092743;28;19957;-43
2022/07/08 14:10:42;;;;;;;;;;;;;;;;;;5090807;28;19912;-43
2022/07/08 14:13:07;;;;;;;;;;;;;;;;;;5095866;28;19912;-43
2022/07/08 14:15:32;;;;;;;;;;;;;;;;;;5090139;28;20255;-43
2022/07/08 14:17:57;;;;;;;;;;;;;;;;;;5092741;28;20386;-44
2022/07/08 14:20:22;;;;;;;;;;;;;;;;;;5090832;28;20343;-44
2022/07/08 14:22:48;;;;;;;;;;;;;;;;;;5091138;28;19912;-43
2022/07/08 14:25:13;;;;;;;;;;;;;;;;;;5081897;28;19927;-44
2022/07/08 14:27:39;;;;;;;;;;;;;;;;;;5085883;28;19919;-43
2022/07/08 14:30:04;;;;;;;;;;;;;;;;;;5093048;28;20390;-43
2022/07/08 14:32:29;;;;;;;;;;;;;;;;;;5090643;28;20278;-44
2022/07/08 14:34:54;;;;;;;;;;;;;;;;;;5093688;28;19919;-43
2022/07/08 14:37:19;;;;;;;;;;;;;;;;;;5091449;28;19913;-45
2022/07/08 14:39:44;;;;;;;;;;;;;;;;;;5089974;28;19912;-43
2022/07/08 14:42:09;;;;;;;;;;;;;;;;;;5096421;28;19966;-44
2022/07/08 14:44:34;;;;;;;;;;;;;;;;;;5096204;28;19912;-41
2022/07/08 14:47:00;;;;;;;;;;;;;;;;;;5096649;28;19924;-44
2022/07/08 14:49:25;;;;;;;;;;;;;;;;;;5099490;28;19924;-44
2022/07/08 14:51:50;;;;;;;;;;;;;;;;;;5103961;28;19912;-43
2022/07/08 14:54:15;;;;;;;;;;;;;;;;;;5095585;28;20371;-44
2022/07/08 14:56:40;;;;;;;;;;;;;;;;;;5095746;28;20349;-44
2022/07/08 14:59:05;;;;;;;;;;;;;;;;;;5095577;28;20013;-43
2022/07/08 15:01:31;;;;;;;;;;;;;;;;;;5096146;28;19908;-46
2022/07/08 15:03:56;;;;;;;;;;;;;;;;;;5096037;28;19912;-41
2022/07/08 15:06:21;;;;;;;;;;;;;;;;;;5094587;28;19968;-43
2022/07/08 15:08:46;;;;;;;;;;;;;;;;;;5092332;28;19912;-43
2022/07/08 15:11:11;;;;;;;;;;;;;;;;;;5092280;28;19912;-43
2022/07/08 15:13:36;;;;;;;;;;;;;;;;;;5093596;28;19916;-42
2022/07/08 15:16:01;;;;;;;;;;;;;;;;;;5094020;28;19920;-42
2022/07/08 15:18:26;;;;;;;;;;;;;;;;;;5094195;28;20374;-43
2022/07/08 15:20:51;;;;;;;;;;;;;;;;;;5094335;28;19919;-44
2022/07/08 15:23:20;;;;;;;;;;;;;;;;;;5095247;28;20390;-43
2022/07/08 15:25:45;;;;;;;;;;;;;;;;;;5096119;28;19916;-44
2022/07/08 15:28:10;;;;;;;;;;;;;;;;;;5092611;28;20380;-44
2022/07/08 15:30:35;;;;;;;;;;;;;;;;;;5094380;28;20258;-43
2022/07/08 15:33:00;;;;;;;;;;;;;;;;;;5092014;28;19912;-43
2022/07/08 15:35:25;;;;;;;;;;;;;;;;;;5093655;28;19912;-44
2022/07/08 15:37:51;;;;;;;;;;;;;;;;;;5094888;28;19919;-43
2022/07/08 15:40:16;;;;;;;;;;;;;;;;;;5094574;28;20339;-44
2022/07/08 15:42:41;;;;;;;;;;;;;;;;;;5094149;28;20350;-42
2022/07/08 15:45:06;;;;;;;;;;;;;;;;;;5093682;28;20290;-43
2022/07/08 15:47:31;;;;;;;;;;;;;;;;;;5095534;28;20329;-43
2022/07/08 15:49:56;;;;;;;;;;;;;;;;;;5087349;28;19939;-43
2022/07/08 15:52:21;;;;;;;;;;;;;;;;;;5093248;28;19923;-43
2022/07/08 15:54:47;;;;;;;;;;;;;;;;;;5094670;28;20370;-43
2022/07/08 15:57:12;;;;;;;;;;;;;;;;;;5094923;28;20381;-43
2022/07/08 15:59:37;;;;;;;;;;;;;;;;;;5095177;28;19951;-44
2022/07/08 16:02:02;;;;;;;;;;;;;;;;;;5095570;28;19908;-44
2022/07/08 16:04:27;;;;;;;;;;;;;;;;;;5095238;28;19908;-44
2022/07/08 16:06:53;;;;;;;;;;;;;;;;;;5095123;28;19921;-44
2022/07/08 16:09:18;;;;;;;;;;;;;;;;;;5095190;28;19908;-43
2022/07/08 16:11:43;;;;;;;;;;;;;;;;;;5095169;28;20332;-43
2022/07/08 16:14:10;;;;;;;;;;;;;;;;;;5094437;28;20420;-42
2022/07/08 16:16:35;;;;;;;;;;;;;;;;;;5094734;28;19969;-43
2022/07/08 16:19:00;;;;;;;;;;;;;;;;;;5093961;28;19916;-44
2022/07/08 16:21:26;;;;;;;;;;;;;;;;;;5094986;28;19954;-44
2022/07/08 16:23:51;;;;;;;;;;;;;;;;;;5095042;28;19931;-43
2022/07/08 16:26:16;;;;;;;;;;;;;;;;;;5093740;28;20422;-42
2022/07/08 16:28:41;;;;;;;;;;;;;;;;;;5094783;28;20324;-44
2022/07/08 16:31:06;;;;;;;;;;;;;;;;;;5094716;28;19909;-43
2022/07/08 16:33:31;;;;;;;;;;;;;;;;;;5094627;28;19908;-43